sensor_id;sensor_type;location;lat;lon;timestamp;P1;durP1;ratioP1;P2;durP2;ratioP2
18983;SDS011;9626;52.552;13.436;2023-03-16T00:00:40;6.30;;;2.07;;
18983;SDS011;9626;52.552;13.436;2023-03-16T00:03:11;7.73;;;2.20;;
18983;SDS011;9626;52.552;13.436;2023-03-16T00:05:47;7.00;;;2.10;;
18983;SDS011;9626;52.552;13.436;2023-03-16T00:08:17;5.87;;;1.93;;
18983;SDS011;9626;52.552;13.436;2023-03-16T00:10:44;6.53;;;2.00;;
18983;SDS011;9626;52.552;13.436;2023-03-16T00:13:13;5.80;;;2.20;;
18983;SDS011;9626;52.552;13.436;2023-03-16T00:15:47;6.20;;;2.00;;
18983;SDS011;9626;52.552;13.436;2023-03-16T00:18:15;7.27;;;2.17;;
18983;SDS011;9626;52.552;13.436;2023-03-16T00:20:43;7.27;;;2.43;;
18983;SDS011;9626;52.552;13.436;2023-03-16T00:23:09;5.80;;;1.80;;
18983;SDS011;9626;52.552;13.436;2023-03-16T00:25:35;9.00;;;2.20;;
18983;SDS011;9626;52.552;13.436;2023-03-16T00:28:01;6.67;;;2.37;;
18983;SDS011;9626;52.552;13.436;2023-03-16T00:30:28;7.83;;;2.17;;
18983;SDS011;9626;52.552;13.436;2023-03-16T00:32:57;9.73;;;2.50;;
18983;SDS011;9626;52.552;13.436;2023-03-16T00:35:24;7.03;;;2.13;;
18983;SDS011;9626;52.552;13.436;2023-03-16T00:37:50;6.50;;;2.00;;
18983;SDS011;9626;52.552;13.436;2023-03-16T00:40:16;6.93;;;2.30;;
18983;SDS011;9626;52.552;13.436;2023-03-16T00:42:43;6.57;;;2.20;;
18983;SDS011;9626;52.552;13.436;2023-03-16T00:45:10;8.57;;;2.00;;
18983;SDS011;9626;52.552;13.436;2023-03-16T00:47:36;6.77;;;2.17;;
18983;SDS011;9626;52.552;13.436;2023-03-16T00:50:02;6.63;;;2.40;;
18983;SDS011;9626;52.552;13.436;2023-03-16T00:52:29;6.53;;;2.17;;
18983;SDS011;9626;52.552;13.436;2023-03-16T00:54:55;7.53;;;2.07;;
18983;SDS011;9626;52.552;13.436;2023-03-16T00:57:22;8.30;;;2.00;;
18983;SDS011;9626;52.552;13.436;2023-03-16T00:59:49;7.93;;;2.07;;
18983;SDS011;9626;52.552;13.436;2023-03-16T01:02:16;6.83;;;2.07;;
18983;SDS011;9626;52.552;13.436;2023-03-16T01:04:44;8.77;;;2.33;;
18983;SDS011;9626;52.552;13.436;2023-03-16T01:07:11;6.47;;;2.20;;
18983;SDS011;9626;52.552;13.436;2023-03-16T01:09:39;11.40;;;2.40;;
18983;SDS011;9626;52.552;13.436;2023-03-16T01:12:10;8.37;;;1.97;;
18983;SDS011;9626;52.552;13.436;2023-03-16T01:14:38;5.07;;;1.90;;
18983;SDS011;9626;52.552;13.436;2023-03-16T01:17:05;7.00;;;2.33;;
18983;SDS011;9626;52.552;13.436;2023-03-16T01:19:33;7.07;;;1.93;;
18983;SDS011;9626;52.552;13.436;2023-03-16T01:22:01;7.47;;;2.00;;
18983;SDS011;9626;52.552;13.436;2023-03-16T01:24:28;6.67;;;1.83;;
18983;SDS011;9626;52.552;13.436;2023-03-16T01:26:55;5.77;;;2.00;;
18983;SDS011;9626;52.552;13.436;2023-03-16T01:29:21;7.43;;;1.70;;
18983;SDS011;9626;52.552;13.436;2023-03-16T01:31:50;4.23;;;1.90;;
18983;SDS011;9626;52.552;13.436;2023-03-16T01:34:18;6.73;;;2.23;;
18983;SDS011;9626;52.552;13.436;2023-03-16T01:36:45;6.20;;;1.83;;
18983;SDS011;9626;52.552;13.436;2023-03-16T01:39:13;4.97;;;1.80;;
18983;SDS011;9626;52.552;13.436;2023-03-16T01:41:40;7.97;;;2.20;;
18983;SDS011;9626;52.552;13.436;2023-03-16T01:44:11;9.83;;;1.90;;
18983;SDS011;9626;52.552;13.436;2023-03-16T01:46:39;8.83;;;2.27;;
18983;SDS011;9626;52.552;13.436;2023-03-16T01:54:27;5.37;;;1.80;;
18983;SDS011;9626;52.552;13.436;2023-03-16T01:59:55;6.87;;;2.03;;
18983;SDS011;9626;52.552;13.436;2023-03-16T02:02:43;7.93;;;1.87;;
18983;SDS011;9626;52.552;13.436;2023-03-16T02:05:18;3.67;;;1.70;;
18983;SDS011;9626;52.552;13.436;2023-03-16T02:07:50;5.50;;;1.77;;
18983;SDS011;9626;52.552;13.436;2023-03-16T02:10:23;6.13;;;1.97;;
18983;SDS011;9626;52.552;13.436;2023-03-16T02:12:52;7.17;;;2.10;;
18983;SDS011;9626;52.552;13.436;2023-03-16T02:15:18;8.27;;;1.67;;
18983;SDS011;9626;52.552;13.436;2023-03-16T02:17:45;7.97;;;1.90;;
18983;SDS011;9626;52.552;13.436;2023-03-16T02:22:59;5.03;;;2.10;;
18983;SDS011;9626;52.552;13.436;2023-03-16T02:25:38;7.27;;;2.03;;
18983;SDS011;9626;52.552;13.436;2023-03-16T02:28:13;4.53;;;2.03;;
18983;SDS011;9626;52.552;13.436;2023-03-16T02:30:49;4.70;;;1.80;;
18983;SDS011;9626;52.552;13.436;2023-03-16T02:33:16;7.07;;;2.70;;
18983;SDS011;9626;52.552;13.436;2023-03-16T02:35:43;6.27;;;1.83;;
18983;SDS011;9626;52.552;13.436;2023-03-16T02:38:09;5.87;;;1.93;;
18983;SDS011;9626;52.552;13.436;2023-03-16T02:40:35;6.53;;;1.90;;
18983;SDS011;9626;52.552;13.436;2023-03-16T02:45:38;9.93;;;2.30;;
18983;SDS011;9626;52.552;13.436;2023-03-16T02:48:09;5.30;;;1.90;;
18983;SDS011;9626;52.552;13.436;2023-03-16T02:50:46;7.80;;;2.20;;
18983;SDS011;9626;52.552;13.436;2023-03-16T02:53:14;11.83;;;2.00;;
18983;SDS011;9626;52.552;13.436;2023-03-16T02:55:41;8.37;;;1.93;;
18983;SDS011;9626;52.552;13.436;2023-03-16T02:58:08;8.47;;;1.90;;
18983;SDS011;9626;52.552;13.436;2023-03-16T03:00:34;4.43;;;2.03;;
18983;SDS011;9626;52.552;13.436;2023-03-16T03:03:00;6.10;;;2.00;;
18983;SDS011;9626;52.552;13.436;2023-03-16T03:05:26;6.37;;;2.23;;
18983;SDS011;9626;52.552;13.436;2023-03-16T03:07:52;8.63;;;2.00;;
18983;SDS011;9626;52.552;13.436;2023-03-16T03:10:18;7.13;;;2.30;;
18983;SDS011;9626;52.552;13.436;2023-03-16T03:12:44;9.83;;;2.23;;
18983;SDS011;9626;52.552;13.436;2023-03-16T03:15:14;5.90;;;1.90;;
18983;SDS011;9626;52.552;13.436;2023-03-16T03:17:41;6.33;;;1.80;;
18983;SDS011;9626;52.552;13.436;2023-03-16T03:20:08;3.83;;;1.87;;
18983;SDS011;9626;52.552;13.436;2023-03-16T03:22:41;6.67;;;2.20;;
18983;SDS011;9626;52.552;13.436;2023-03-16T03:25:13;7.77;;;2.10;;
18983;SDS011;9626;52.552;13.436;2023-03-16T03:27:41;10.80;;;2.27;;
18983;SDS011;9626;52.552;13.436;2023-03-16T03:30:09;7.73;;;2.20;;
18983;SDS011;9626;52.552;13.436;2023-03-16T03:32:40;9.87;;;2.13;;
18983;SDS011;9626;52.552;13.436;2023-03-16T03:35:07;11.40;;;2.10;;
18983;SDS011;9626;52.552;13.436;2023-03-16T03:37:33;6.67;;;2.00;;
18983;SDS011;9626;52.552;13.436;2023-03-16T03:39:59;4.63;;;2.17;;
18983;SDS011;9626;52.552;13.436;2023-03-16T03:42:29;4.67;;;1.70;;
18983;SDS011;9626;52.552;13.436;2023-03-16T03:44:55;11.33;;;2.00;;
18983;SDS011;9626;52.552;13.436;2023-03-16T03:47:21;2.80;;;1.40;;
18983;SDS011;9626;52.552;13.436;2023-03-16T03:49:47;6.60;;;1.57;;
18983;SDS011;9626;52.552;13.436;2023-03-16T03:52:13;4.03;;;1.67;;
18983;SDS011;9626;52.552;13.436;2023-03-16T03:54:39;8.13;;;2.20;;
18983;SDS011;9626;52.552;13.436;2023-03-16T03:57:05;5.13;;;1.70;;
18983;SDS011;9626;52.552;13.436;2023-03-16T03:59:31;5.77;;;1.77;;
18983;SDS011;9626;52.552;13.436;2023-03-16T04:01:57;7.80;;;2.57;;
18983;SDS011;9626;52.552;13.436;2023-03-16T04:04:23;7.70;;;1.87;;
18983;SDS011;9626;52.552;13.436;2023-03-16T04:06:49;7.23;;;2.10;;
18983;SDS011;9626;52.552;13.436;2023-03-16T04:09:16;9.63;;;2.07;;
18983;SDS011;9626;52.552;13.436;2023-03-16T04:11:42;6.93;;;1.80;;
18983;SDS011;9626;52.552;13.436;2023-03-16T04:14:08;8.07;;;1.83;;
18983;SDS011;9626;52.552;13.436;2023-03-16T04:16:34;4.90;;;1.60;;
18983;SDS011;9626;52.552;13.436;2023-03-16T04:19:19;7.13;;;2.07;;
18983;SDS011;9626;52.552;13.436;2023-03-16T04:22:04;10.17;;;1.67;;
18983;SDS011;9626;52.552;13.436;2023-03-16T04:24:50;8.73;;;1.60;;
18983;SDS011;9626;52.552;13.436;2023-03-16T04:27:16;8.13;;;2.20;;
18983;SDS011;9626;52.552;13.436;2023-03-16T04:29:42;6.23;;;2.00;;
18983;SDS011;9626;52.552;13.436;2023-03-16T04:32:08;5.37;;;1.73;;
18983;SDS011;9626;52.552;13.436;2023-03-16T04:34:36;6.30;;;1.87;;
18983;SDS011;9626;52.552;13.436;2023-03-16T04:37:03;7.43;;;1.90;;
18983;SDS011;9626;52.552;13.436;2023-03-16T04:39:29;6.10;;;2.20;;
18983;SDS011;9626;52.552;13.436;2023-03-16T04:41:55;3.30;;;1.67;;
18983;SDS011;9626;52.552;13.436;2023-03-16T04:44:21;7.00;;;1.90;;
18983;SDS011;9626;52.552;13.436;2023-03-16T04:46:47;10.53;;;1.70;;
18983;SDS011;9626;52.552;13.436;2023-03-16T04:49:13;6.03;;;1.90;;
18983;SDS011;9626;52.552;13.436;2023-03-16T04:51:39;7.33;;;2.00;;
18983;SDS011;9626;52.552;13.436;2023-03-16T04:54:07;6.57;;;2.00;;
18983;SDS011;9626;52.552;13.436;2023-03-16T04:56:33;7.13;;;1.83;;
18983;SDS011;9626;52.552;13.436;2023-03-16T04:58:59;5.60;;;1.60;;
18983;SDS011;9626;52.552;13.436;2023-03-16T05:01:25;6.23;;;1.90;;
18983;SDS011;9626;52.552;13.436;2023-03-16T05:03:52;6.97;;;1.70;;
18983;SDS011;9626;52.552;13.436;2023-03-16T05:06:18;4.47;;;1.80;;
18983;SDS011;9626;52.552;13.436;2023-03-16T05:08:44;6.73;;;2.13;;
18983;SDS011;9626;52.552;13.436;2023-03-16T05:11:10;5.83;;;1.70;;
18983;SDS011;9626;52.552;13.436;2023-03-16T05:13:36;3.70;;;1.80;;
18983;SDS011;9626;52.552;13.436;2023-03-16T05:16:03;7.13;;;2.17;;
18983;SDS011;9626;52.552;13.436;2023-03-16T05:18:29;8.00;;;2.00;;
18983;SDS011;9626;52.552;13.436;2023-03-16T05:20:57;5.83;;;1.90;;
18983;SDS011;9626;52.552;13.436;2023-03-16T05:23:23;4.57;;;1.57;;
18983;SDS011;9626;52.552;13.436;2023-03-16T05:25:49;7.30;;;2.20;;
18983;SDS011;9626;52.552;13.436;2023-03-16T05:28:15;3.37;;;1.80;;
18983;SDS011;9626;52.552;13.436;2023-03-16T05:30:42;5.80;;;2.17;;
18983;SDS011;9626;52.552;13.436;2023-03-16T05:33:09;6.00;;;1.93;;
18983;SDS011;9626;52.552;13.436;2023-03-16T05:35:36;5.03;;;2.20;;
18983;SDS011;9626;52.552;13.436;2023-03-16T05:38:02;7.57;;;2.10;;
18983;SDS011;9626;52.552;13.436;2023-03-16T05:40:29;5.67;;;2.27;;
18983;SDS011;9626;52.552;13.436;2023-03-16T05:42:55;11.10;;;2.40;;
18983;SDS011;9626;52.552;13.436;2023-03-16T05:45:22;4.07;;;2.00;;
18983;SDS011;9626;52.552;13.436;2023-03-16T05:47:49;10.83;;;2.10;;
18983;SDS011;9626;52.552;13.436;2023-03-16T05:50:33;13.83;;;3.73;;
18983;SDS011;9626;52.552;13.436;2023-03-16T05:52:59;11.27;;;2.70;;
18983;SDS011;9626;52.552;13.436;2023-03-16T05:55:25;24.13;;;8.90;;
18983;SDS011;9626;52.552;13.436;2023-03-16T05:57:51;13.37;;;5.57;;
18983;SDS011;9626;52.552;13.436;2023-03-16T06:00:17;12.37;;;5.37;;
18983;SDS011;9626;52.552;13.436;2023-03-16T06:03:01;12.77;;;6.50;;
18983;SDS011;9626;52.552;13.436;2023-03-16T06:05:27;10.07;;;3.40;;
18983;SDS011;9626;52.552;13.436;2023-03-16T06:07:54;7.97;;;3.70;;
18983;SDS011;9626;52.552;13.436;2023-03-16T06:10:20;8.93;;;2.80;;
18983;SDS011;9626;52.552;13.436;2023-03-16T06:13:05;9.50;;;3.03;;
18983;SDS011;9626;52.552;13.436;2023-03-16T06:15:31;6.53;;;2.87;;
18983;SDS011;9626;52.552;13.436;2023-03-16T06:18:15;13.43;;;2.33;;
18983;SDS011;9626;52.552;13.436;2023-03-16T06:20:59;6.87;;;2.30;;
18983;SDS011;9626;52.552;13.436;2023-03-16T06:23:45;7.53;;;2.50;;
18983;SDS011;9626;52.552;13.436;2023-03-16T06:26:29;3.57;;;1.80;;
18983;SDS011;9626;52.552;13.436;2023-03-16T06:29:15;8.40;;;2.43;;
18983;SDS011;9626;52.552;13.436;2023-03-16T06:32:00;6.20;;;2.37;;
18983;SDS011;9626;52.552;13.436;2023-03-16T06:34:44;6.73;;;2.80;;
18983;SDS011;9626;52.552;13.436;2023-03-16T06:37:10;6.37;;;2.50;;
18983;SDS011;9626;52.552;13.436;2023-03-16T06:39:55;9.63;;;2.50;;
18983;SDS011;9626;52.552;13.436;2023-03-16T06:42:21;5.97;;;2.87;;
18983;SDS011;9626;52.552;13.436;2023-03-16T06:44:48;7.97;;;2.87;;
18983;SDS011;9626;52.552;13.436;2023-03-16T06:47:36;8.07;;;2.70;;
18983;SDS011;9626;52.552;13.436;2023-03-16T06:50:20;9.07;;;2.50;;
18983;SDS011;9626;52.552;13.436;2023-03-16T06:53:05;8.70;;;2.10;;
18983;SDS011;9626;52.552;13.436;2023-03-16T06:55:44;7.90;;;2.73;;
18983;SDS011;9626;52.552;13.436;2023-03-16T06:58:28;10.97;;;3.70;;
18983;SDS011;9626;52.552;13.436;2023-03-16T07:00:55;7.83;;;5.23;;
18983;SDS011;9626;52.552;13.436;2023-03-16T07:03:21;14.90;;;7.77;;
18983;SDS011;9626;52.552;13.436;2023-03-16T07:05:47;11.50;;;4.57;;
18983;SDS011;9626;52.552;13.436;2023-03-16T07:08:13;27.43;;;17.37;;
18983;SDS011;9626;52.552;13.436;2023-03-16T07:10:58;66.40;;;30.87;;
18983;SDS011;9626;52.552;13.436;2023-03-16T07:13:43;68.80;;;38.30;;
18983;SDS011;9626;52.552;13.436;2023-03-16T07:16:09;39.57;;;25.43;;
18983;SDS011;9626;52.552;13.436;2023-03-16T07:19:02;10.07;;;4.90;;
18983;SDS011;9626;52.552;13.436;2023-03-16T07:21:28;8.27;;;2.97;;
18983;SDS011;9626;52.552;13.436;2023-03-16T07:24:12;6.47;;;2.40;;
18983;SDS011;9626;52.552;13.436;2023-03-16T07:26:58;5.00;;;2.30;;
18983;SDS011;9626;52.552;13.436;2023-03-16T07:29:24;9.47;;;2.80;;
18983;SDS011;9626;52.552;13.436;2023-03-16T07:31:50;10.03;;;2.27;;
18983;SDS011;9626;52.552;13.436;2023-03-16T07:34:17;4.37;;;1.80;;
18983;SDS011;9626;52.552;13.436;2023-03-16T07:36:43;8.27;;;1.97;;
18983;SDS011;9626;52.552;13.436;2023-03-16T07:39:10;9.03;;;3.20;;
18983;SDS011;9626;52.552;13.436;2023-03-16T07:41:39;9.53;;;2.90;;
18983;SDS011;9626;52.552;13.436;2023-03-16T07:44:05;9.60;;;4.47;;
18983;SDS011;9626;52.552;13.436;2023-03-16T07:46:31;6.43;;;2.10;;
18983;SDS011;9626;52.552;13.436;2023-03-16T07:48:57;5.83;;;1.93;;
18983;SDS011;9626;52.552;13.436;2023-03-16T07:51:23;7.80;;;2.00;;
18983;SDS011;9626;52.552;13.436;2023-03-16T07:53:49;8.23;;;2.27;;
18983;SDS011;9626;52.552;13.436;2023-03-16T07:56:15;10.03;;;2.13;;
18983;SDS011;9626;52.552;13.436;2023-03-16T07:58:42;6.37;;;3.03;;
18983;SDS011;9626;52.552;13.436;2023-03-16T08:01:08;7.93;;;2.63;;
18983;SDS011;9626;52.552;13.436;2023-03-16T08:03:36;5.63;;;2.27;;
18983;SDS011;9626;52.552;13.436;2023-03-16T08:06:03;5.83;;;2.07;;
18983;SDS011;9626;52.552;13.436;2023-03-16T08:08:30;7.10;;;2.87;;
18983;SDS011;9626;52.552;13.436;2023-03-16T08:10:56;8.10;;;2.03;;
18983;SDS011;9626;52.552;13.436;2023-03-16T08:13:23;6.43;;;1.80;;
18983;SDS011;9626;52.552;13.436;2023-03-16T08:15:51;6.43;;;2.40;;
18983;SDS011;9626;52.552;13.436;2023-03-16T08:18:29;5.90;;;2.63;;
18983;SDS011;9626;52.552;13.436;2023-03-16T08:20:56;9.07;;;2.03;;
18983;SDS011;9626;52.552;13.436;2023-03-16T08:23:23;7.87;;;2.00;;
18983;SDS011;9626;52.552;13.436;2023-03-16T08:25:50;7.60;;;2.83;;
18983;SDS011;9626;52.552;13.436;2023-03-16T08:28:20;9.23;;;2.37;;
18983;SDS011;9626;52.552;13.436;2023-03-16T08:31:02;8.40;;;2.30;;
18983;SDS011;9626;52.552;13.436;2023-03-16T08:33:32;4.60;;;2.17;;
18983;SDS011;9626;52.552;13.436;2023-03-16T08:36:17;6.03;;;2.33;;
18983;SDS011;9626;52.552;13.436;2023-03-16T08:38:45;7.60;;;2.20;;
18983;SDS011;9626;52.552;13.436;2023-03-16T08:41:12;12.90;;;4.57;;
18983;SDS011;9626;52.552;13.436;2023-03-16T08:43:59;8.17;;;2.10;;
18983;SDS011;9626;52.552;13.436;2023-03-16T08:46:27;5.03;;;1.93;;
18983;SDS011;9626;52.552;13.436;2023-03-16T08:49:08;5.77;;;2.23;;
18983;SDS011;9626;52.552;13.436;2023-03-16T08:51:53;4.97;;;2.00;;
18983;SDS011;9626;52.552;13.436;2023-03-16T08:54:38;8.30;;;3.20;;
18983;SDS011;9626;52.552;13.436;2023-03-16T08:57:13;8.23;;;2.90;;
18983;SDS011;9626;52.552;13.436;2023-03-16T08:59:57;7.63;;;2.20;;
18983;SDS011;9626;52.552;13.436;2023-03-16T09:02:42;7.47;;;2.20;;
18983;SDS011;9626;52.552;13.436;2023-03-16T09:05:09;3.90;;;1.73;;
18983;SDS011;9626;52.552;13.436;2023-03-16T09:07:37;5.23;;;2.03;;
18983;SDS011;9626;52.552;13.436;2023-03-16T09:10:22;7.40;;;2.33;;
18983;SDS011;9626;52.552;13.436;2023-03-16T09:12:48;4.93;;;2.17;;
18983;SDS011;9626;52.552;13.436;2023-03-16T09:15:15;18.97;;;3.30;;
18983;SDS011;9626;52.552;13.436;2023-03-16T09:17:41;12.77;;;2.30;;
18983;SDS011;9626;52.552;13.436;2023-03-16T09:20:09;6.63;;;2.00;;
18983;SDS011;9626;52.552;13.436;2023-03-16T09:22:37;8.97;;;2.10;;
18983;SDS011;9626;52.552;13.436;2023-03-16T09:25:03;7.00;;;2.17;;
18983;SDS011;9626;52.552;13.436;2023-03-16T09:27:31;4.77;;;1.80;;
18983;SDS011;9626;52.552;13.436;2023-03-16T09:29:58;8.73;;;1.97;;
18983;SDS011;9626;52.552;13.436;2023-03-16T09:32:45;8.47;;;1.90;;
18983;SDS011;9626;52.552;13.436;2023-03-16T09:35:13;11.50;;;2.07;;
18983;SDS011;9626;52.552;13.436;2023-03-16T09:37:55;9.63;;;1.80;;
18983;SDS011;9626;52.552;13.436;2023-03-16T09:40:23;6.73;;;1.97;;
18983;SDS011;9626;52.552;13.436;2023-03-16T09:48:27;9.33;;;1.80;;
18983;SDS011;9626;52.552;13.436;2023-03-16T09:51:01;7.57;;;1.93;;
18983;SDS011;9626;52.552;13.436;2023-03-16T09:53:49;7.10;;;1.63;;
18983;SDS011;9626;52.552;13.436;2023-03-16T09:56:41;3.53;;;1.40;;
18983;SDS011;9626;52.552;13.436;2023-03-16T09:59:12;5.47;;;1.90;;
18983;SDS011;9626;52.552;13.436;2023-03-16T10:02:06;7.53;;;1.60;;
18983;SDS011;9626;52.552;13.436;2023-03-16T10:05:07;7.13;;;1.63;;
18983;SDS011;9626;52.552;13.436;2023-03-16T10:10:57;6.63;;;1.50;;
18983;SDS011;9626;52.552;13.436;2023-03-16T10:16:51;4.87;;;1.23;;
18983;SDS011;9626;52.552;13.436;2023-03-16T10:19:58;7.70;;;1.47;;
18983;SDS011;9626;52.552;13.436;2023-03-16T10:22:30;5.07;;;1.70;;
18983;SDS011;9626;52.552;13.436;2023-03-16T10:25:02;5.47;;;2.10;;
18983;SDS011;9626;52.552;13.436;2023-03-16T10:27:50;9.73;;;2.00;;
18983;SDS011;9626;52.552;13.436;2023-03-16T10:32:50;3.30;;;1.43;;
18983;SDS011;9626;52.552;13.436;2023-03-16T10:38:29;5.23;;;1.30;;
18983;SDS011;9626;52.552;13.436;2023-03-16T10:43:52;4.47;;;1.67;;
18983;SDS011;9626;52.552;13.436;2023-03-16T10:46:20;4.80;;;1.73;;
18983;SDS011;9626;52.552;13.436;2023-03-16T10:48:57;5.03;;;1.97;;
18983;SDS011;9626;52.552;13.436;2023-03-16T10:51:28;12.00;;;2.10;;
18983;SDS011;9626;52.552;13.436;2023-03-16T10:54:01;5.20;;;1.43;;
18983;SDS011;9626;52.552;13.436;2023-03-16T10:56:52;5.87;;;2.03;;
18983;SDS011;9626;52.552;13.436;2023-03-16T10:59:29;3.67;;;1.60;;
18983;SDS011;9626;52.552;13.436;2023-03-16T11:02:13;4.73;;;1.80;;
18983;SDS011;9626;52.552;13.436;2023-03-16T11:08:01;3.33;;;1.70;;
18983;SDS011;9626;52.552;13.436;2023-03-16T11:10:41;4.40;;;1.60;;
18983;SDS011;9626;52.552;13.436;2023-03-16T11:13:13;13.77;;;2.20;;
18983;SDS011;9626;52.552;13.436;2023-03-16T11:15:59;7.73;;;2.80;;
18983;SDS011;9626;52.552;13.436;2023-03-16T11:18:45;8.37;;;4.17;;
18983;SDS011;9626;52.552;13.436;2023-03-16T11:24:24;4.13;;;1.40;;
18983;SDS011;9626;52.552;13.436;2023-03-16T11:26:58;3.77;;;1.53;;
18983;SDS011;9626;52.552;13.436;2023-03-16T11:32:05;3.50;;;1.63;;
18983;SDS011;9626;52.552;13.436;2023-03-16T11:34:39;10.43;;;1.83;;
18983;SDS011;9626;52.552;13.436;2023-03-16T11:45:27;5.13;;;1.90;;
18983;SDS011;9626;52.552;13.436;2023-03-16T11:51:08;2.93;;;1.37;;
18983;SDS011;9626;52.552;13.436;2023-03-16T11:56:56;3.87;;;1.47;;
18983;SDS011;9626;52.552;13.436;2023-03-16T11:59:52;8.20;;;2.00;;
18983;SDS011;9626;52.552;13.436;2023-03-16T12:06:13;7.23;;;2.30;;
18983;SDS011;9626;52.552;13.436;2023-03-16T12:14:23;11.23;;;4.00;;
18983;SDS011;9626;52.552;13.436;2023-03-16T12:16:56;3.50;;;1.43;;
18983;SDS011;9626;52.552;13.436;2023-03-16T12:19:42;3.57;;;1.20;;
18983;SDS011;9626;52.552;13.436;2023-03-16T12:22:32;3.03;;;1.37;;
18983;SDS011;9626;52.552;13.436;2023-03-16T12:25:21;5.57;;;1.20;;
18983;SDS011;9626;52.552;13.436;2023-03-16T12:27:51;7.97;;;1.50;;
18983;SDS011;9626;52.552;13.436;2023-03-16T12:30:26;5.43;;;1.27;;
18983;SDS011;9626;52.552;13.436;2023-03-16T12:33:09;7.83;;;1.70;;
18983;SDS011;9626;52.552;13.436;2023-03-16T12:39:50;3.30;;;1.43;;
18983;SDS011;9626;52.552;13.436;2023-03-16T12:45:28;3.97;;;1.40;;
18983;SDS011;9626;52.552;13.436;2023-03-16T12:50:52;2.77;;;1.30;;
18983;SDS011;9626;52.552;13.436;2023-03-16T12:53:55;3.33;;;1.47;;
18983;SDS011;9626;52.552;13.436;2023-03-16T12:56:20;5.43;;;1.60;;
18983;SDS011;9626;52.552;13.436;2023-03-16T12:58:55;5.33;;;1.60;;
18983;SDS011;9626;52.552;13.436;2023-03-16T13:01:25;4.20;;;1.20;;
18983;SDS011;9626;52.552;13.436;2023-03-16T13:04:17;1.80;;;0.87;;
18983;SDS011;9626;52.552;13.436;2023-03-16T13:07:08;1.83;;;0.97;;
18983;SDS011;9626;52.552;13.436;2023-03-16T13:09:51;2.50;;;1.20;;
18983;SDS011;9626;52.552;13.436;2023-03-16T13:12:26;4.10;;;1.40;;
18983;SDS011;9626;52.552;13.436;2023-03-16T13:14:57;4.03;;;1.20;;
18983;SDS011;9626;52.552;13.436;2023-03-16T13:17:34;25.30;;;3.07;;
18983;SDS011;9626;52.552;13.436;2023-03-16T13:20:24;2.43;;;1.20;;
18983;SDS011;9626;52.552;13.436;2023-03-16T13:23:17;4.97;;;1.30;;
18983;SDS011;9626;52.552;13.436;2023-03-16T13:26:12;1.90;;;1.07;;
18983;SDS011;9626;52.552;13.436;2023-03-16T13:28:41;4.03;;;1.33;;
18983;SDS011;9626;52.552;13.436;2023-03-16T13:31:24;7.47;;;2.13;;
18983;SDS011;9626;52.552;13.436;2023-03-16T13:33:57;2.80;;;1.20;;
18983;SDS011;9626;52.552;13.436;2023-03-16T13:36:26;3.83;;;1.10;;
18983;SDS011;9626;52.552;13.436;2023-03-16T13:39:05;2.70;;;0.97;;
18983;SDS011;9626;52.552;13.436;2023-03-16T13:45:06;4.27;;;2.00;;
18983;SDS011;9626;52.552;13.436;2023-03-16T13:47:56;3.63;;;1.07;;
18983;SDS011;9626;52.552;13.436;2023-03-16T13:50:43;4.77;;;1.10;;
18983;SDS011;9626;52.552;13.436;2023-03-16T13:53:38;4.57;;;2.07;;
18983;SDS011;9626;52.552;13.436;2023-03-16T13:56:25;4.40;;;1.73;;
18983;SDS011;9626;52.552;13.436;2023-03-16T13:59:12;3.23;;;1.27;;
18983;SDS011;9626;52.552;13.436;2023-03-16T14:01:58;4.00;;;1.47;;
18983;SDS011;9626;52.552;13.436;2023-03-16T14:04:44;5.50;;;1.10;;
18983;SDS011;9626;52.552;13.436;2023-03-16T14:07:35;4.50;;;0.93;;
18983;SDS011;9626;52.552;13.436;2023-03-16T14:10:25;3.53;;;1.20;;
18983;SDS011;9626;52.552;13.436;2023-03-16T14:12:57;4.80;;;1.70;;
18983;SDS011;9626;52.552;13.436;2023-03-16T14:16:16;3.47;;;1.13;;
18983;SDS011;9626;52.552;13.436;2023-03-16T14:18:45;1.80;;;1.10;;
18983;SDS011;9626;52.552;13.436;2023-03-16T14:21:26;2.03;;;1.30;;
18983;SDS011;9626;52.552;13.436;2023-03-16T14:24:32;5.07;;;1.57;;
18983;SDS011;9626;52.552;13.436;2023-03-16T14:27:24;2.73;;;1.50;;
18983;SDS011;9626;52.552;13.436;2023-03-16T14:30:49;4.60;;;1.23;;
18983;SDS011;9626;52.552;13.436;2023-03-16T14:33:38;3.77;;;1.60;;
18983;SDS011;9626;52.552;13.436;2023-03-16T14:38:56;2.80;;;1.30;;
18983;SDS011;9626;52.552;13.436;2023-03-16T14:41:41;2.27;;;0.90;;
18983;SDS011;9626;52.552;13.436;2023-03-16T14:44:28;1.87;;;0.93;;
18983;SDS011;9626;52.552;13.436;2023-03-16T14:47:22;1.60;;;1.00;;
18983;SDS011;9626;52.552;13.436;2023-03-16T14:50:12;3.17;;;0.87;;
18983;SDS011;9626;52.552;13.436;2023-03-16T14:53:00;3.07;;;0.97;;
18983;SDS011;9626;52.552;13.436;2023-03-16T14:55:47;2.70;;;1.20;;
18983;SDS011;9626;52.552;13.436;2023-03-16T14:58:31;2.80;;;1.47;;
18983;SDS011;9626;52.552;13.436;2023-03-16T15:01:13;3.33;;;1.13;;
18983;SDS011;9626;52.552;13.436;2023-03-16T15:04:01;4.50;;;1.40;;
18983;SDS011;9626;52.552;13.436;2023-03-16T15:06:27;1.90;;;1.00;;
18983;SDS011;9626;52.552;13.436;2023-03-16T15:09:18;3.57;;;1.43;;
18983;SDS011;9626;52.552;13.436;2023-03-16T15:12:15;2.57;;;0.90;;
18983;SDS011;9626;52.552;13.436;2023-03-16T15:15:23;2.90;;;1.30;;
18983;SDS011;9626;52.552;13.436;2023-03-16T15:18:07;2.17;;;0.70;;
18983;SDS011;9626;52.552;13.436;2023-03-16T15:20:52;2.10;;;0.80;;
18983;SDS011;9626;52.552;13.436;2023-03-16T15:23:38;2.93;;;1.00;;
18983;SDS011;9626;52.552;13.436;2023-03-16T15:26:24;3.50;;;1.33;;
18983;SDS011;9626;52.552;13.436;2023-03-16T15:29:11;3.13;;;0.90;;
18983;SDS011;9626;52.552;13.436;2023-03-16T15:31:37;2.60;;;1.30;;
18983;SDS011;9626;52.552;13.436;2023-03-16T15:34:22;3.47;;;0.90;;
18983;SDS011;9626;52.552;13.436;2023-03-16T15:37:11;2.20;;;0.87;;
18983;SDS011;9626;52.552;13.436;2023-03-16T15:39:57;1.50;;;0.77;;
18983;SDS011;9626;52.552;13.436;2023-03-16T15:42:42;2.73;;;1.20;;
18983;SDS011;9626;52.552;13.436;2023-03-16T15:45:10;1.60;;;0.90;;
18983;SDS011;9626;52.552;13.436;2023-03-16T15:47:57;2.23;;;1.23;;
18983;SDS011;9626;52.552;13.436;2023-03-16T15:50:43;2.50;;;1.00;;
18983;SDS011;9626;52.552;13.436;2023-03-16T15:53:37;1.93;;;1.13;;
18983;SDS011;9626;52.552;13.436;2023-03-16T15:56:06;3.40;;;1.13;;
18983;SDS011;9626;52.552;13.436;2023-03-16T15:58:54;2.03;;;1.10;;
18983;SDS011;9626;52.552;13.436;2023-03-16T16:01:44;2.87;;;1.80;;
18983;SDS011;9626;52.552;13.436;2023-03-16T16:04:30;8.17;;;4.73;;
18983;SDS011;9626;52.552;13.436;2023-03-16T16:07:14;1.77;;;1.00;;
18983;SDS011;9626;52.552;13.436;2023-03-16T16:09:59;2.60;;;1.03;;
18983;SDS011;9626;52.552;13.436;2023-03-16T16:12:45;2.43;;;0.83;;
18983;SDS011;9626;52.552;13.436;2023-03-16T16:15:29;2.93;;;1.30;;
18983;SDS011;9626;52.552;13.436;2023-03-16T16:17:58;2.17;;;0.90;;
18983;SDS011;9626;52.552;13.436;2023-03-16T16:20:27;6.07;;;2.90;;
18983;SDS011;9626;52.552;13.436;2023-03-16T16:22:58;3.03;;;0.93;;
18983;SDS011;9626;52.552;13.436;2023-03-16T16:25:25;2.27;;;1.23;;
18983;SDS011;9626;52.552;13.436;2023-03-16T16:27:54;5.40;;;1.87;;
18983;SDS011;9626;52.552;13.436;2023-03-16T16:32:46;3.77;;;1.90;;
18983;SDS011;9626;52.552;13.436;2023-03-16T16:35:14;8.90;;;5.93;;
18983;SDS011;9626;52.552;13.436;2023-03-16T16:37:46;2.20;;;1.00;;
18983;SDS011;9626;52.552;13.436;2023-03-16T16:40:22;2.30;;;1.17;;
18983;SDS011;9626;52.552;13.436;2023-03-16T16:42:51;1.60;;;0.93;;
18983;SDS011;9626;52.552;13.436;2023-03-16T16:45:20;2.67;;;1.47;;
18983;SDS011;9626;52.552;13.436;2023-03-16T16:47:49;3.93;;;2.60;;
18983;SDS011;9626;52.552;13.436;2023-03-16T16:50:23;7.20;;;4.43;;
18983;SDS011;9626;52.552;13.436;2023-03-16T16:52:51;4.83;;;1.20;;